sensor_id;sensor_type;location;lat;lon;timestamp;pressure;altitude;pressure_sealevel;temperature;humidity
38303;BME280;24103;42.454;27.400;2023-01-16T00:00:50;100907.34;;;6.91;100.00
38303;BME280;24103;42.454;27.400;2023-01-16T00:03:16;100904.91;;;6.87;100.00
38303;BME280;24103;42.454;27.400;2023-01-16T00:05:42;100903.31;;;6.82;100.00
38303;BME280;24103;42.454;27.400;2023-01-16T00:08:08;100905.72;;;6.89;100.00
38303;BME280;24103;42.454;27.400;2023-01-16T00:10:33;100902.47;;;6.82;100.00
38303;BME280;24103;42.454;27.400;2023-01-16T00:12:59;100904.66;;;6.93;100.00
38303;BME280;24103;42.454;27.400;2023-01-16T00:15:24;100887.50;;;6.84;100.00
38303;BME280;24103;42.454;27.400;2023-01-16T00:17:50;100902.09;;;6.91;100.00
38303;BME280;24103;42.454;27.400;2023-01-16T00:20:16;100895.94;;;6.92;100.00
38303;BME280;24103;42.454;27.400;2023-01-16T00:22:42;100894.06;;;6.96;100.00
38303;BME280;24103;42.454;27.400;2023-01-16T00:25:08;100895.16;;;6.90;100.00
38303;BME280;24103;42.454;27.400;2023-01-16T00:27:33;100886.44;;;6.90;100.00
38303;BME280;24103;42.454;27.400;2023-01-16T00:29:59;100894.38;;;6.88;100.00
38303;BME280;24103;42.454;27.400;2023-01-16T00:32:25;100892.25;;;6.98;100.00
38303;BME280;24103;42.454;27.400;2023-01-16T00:34:50;100881.59;;;6.77;100.00
38303;BME280;24103;42.454;27.400;2023-01-16T00:37:16;100873.16;;;6.69;100.00
38303;BME280;24103;42.454;27.400;2023-01-16T00:39:41;100887.91;;;6.73;100.00
38303;BME280;24103;42.454;27.400;2023-01-16T00:42:07;100891.28;;;6.77;100.00
38303;BME280;24103;42.454;27.400;2023-01-16T00:44:33;100884.19;;;6.79;100.00
38303;BME280;24103;42.454;27.400;2023-01-16T00:46:59;100884.66;;;6.90;100.00
38303;BME280;24103;42.454;27.400;2023-01-16T00:49:25;100883.22;;;6.81;100.00
38303;BME280;24103;42.454;27.400;2023-01-16T00:51:50;100887.59;;;6.81;100.00
38303;BME280;24103;42.454;27.400;2023-01-16T00:54:16;100872.84;;;6.78;100.00
38303;BME280;24103;42.454;27.400;2023-01-16T00:56:41;100876.47;;;6.74;100.00
38303;BME280;24103;42.454;27.400;2023-01-16T00:59:07;100866.25;;;6.67;100.00
38303;BME280;24103;42.454;27.400;2023-01-16T01:01:33;100871.78;;;6.59;100.00
38303;BME280;24103;42.454;27.400;2023-01-16T01:03:59;100871.78;;;6.59;100.00
38303;BME280;24103;42.454;27.400;2023-01-16T01:06:24;100868.13;;;6.63;100.00
38303;BME280;24103;42.454;27.400;2023-01-16T01:08:50;100858.66;;;6.59;100.00
38303;BME280;24103;42.454;27.400;2023-01-16T01:11:16;100849.84;;;6.60;100.00
38303;BME280;24103;42.454;27.400;2023-01-16T01:13:42;100849.00;;;6.59;100.00
38303;BME280;24103;42.454;27.400;2023-01-16T01:16:09;100856.72;;;6.64;100.00
38303;BME280;24103;42.454;27.400;2023-01-16T01:18:35;100852.31;;;6.64;100.00
38303;BME280;24103;42.454;27.400;2023-01-16T01:21:01;100849.75;;;6.63;100.00
38303;BME280;24103;42.454;27.400;2023-01-16T01:23:28;100838.28;;;6.66;100.00
38303;BME280;24103;42.454;27.400;2023-01-16T01:25:53;100833.66;;;6.49;100.00
38303;BME280;24103;42.454;27.400;2023-01-16T01:28:19;100833.81;;;6.44;100.00
38303;BME280;24103;42.454;27.400;2023-01-16T01:30:45;100837.78;;;6.31;100.00
38303;BME280;24103;42.454;27.400;2023-01-16T01:33:11;100835.84;;;6.36;100.00
38303;BME280;24103;42.454;27.400;2023-01-16T01:35:37;100831.19;;;6.44;100.00
38303;BME280;24103;42.454;27.400;2023-01-16T01:38:03;100830.09;;;6.50;100.00
38303;BME280;24103;42.454;27.400;2023-01-16T01:40:29;100830.00;;;6.53;100.00
38303;BME280;24103;42.454;27.400;2023-01-16T01:42:54;100817.03;;;6.48;100.00
38303;BME280;24103;42.454;27.400;2023-01-16T01:45:24;100838.97;;;6.47;100.00
38303;BME280;24103;42.454;27.400;2023-01-16T01:51:23;100827.97;;;6.36;100.00
38303;BME280;24103;42.454;27.400;2023-01-16T01:53:56;100828.03;;;6.34;100.00
38303;BME280;24103;42.454;27.400;2023-01-16T01:56:51;100826.38;;;6.32;100.00
38303;BME280;24103;42.454;27.400;2023-01-16T01:59:18;100825.34;;;6.36;100.00
38303;BME280;24103;42.454;27.400;2023-01-16T02:01:45;100830.09;;;6.50;100.00
38303;BME280;24103;42.454;27.400;2023-01-16T02:04:19;100831.66;;;6.55;100.00
38303;BME280;24103;42.454;27.400;2023-01-16T02:06:48;100829.19;;;6.51;100.00
38303;BME280;24103;42.454;27.400;2023-01-16T02:09:15;100823.44;;;6.41;100.00
38303;BME280;24103;42.454;27.400;2023-01-16T02:11:48;100816.63;;;6.35;100.00
38303;BME280;24103;42.454;27.400;2023-01-16T02:14:17;100822.16;;;6.27;100.00
38303;BME280;24103;42.454;27.400;2023-01-16T02:16:45;100820.59;;;6.22;100.00
38303;BME280;24103;42.454;27.400;2023-01-16T02:25:36;100819.53;;;6.02;100.00
38303;BME280;24103;42.454;27.400;2023-01-16T02:33:44;100810.34;;;6.16;100.00
38303;BME280;24103;42.454;27.400;2023-01-16T02:41:58;100808.97;;;6.29;100.00
38303;BME280;24103;42.454;27.400;2023-01-16T02:47:25;100809.09;;;6.26;100.00
38303;BME280;24103;42.454;27.400;2023-01-16T02:52:49;100811.03;;;6.21;100.00
38303;BME280;24103;42.454;27.400;2023-01-16T02:55:31;100810.88;;;6.25;100.00
38303;BME280;24103;42.454;27.400;2023-01-16T02:58:04;100803.03;;;6.24;100.00
38303;BME280;24103;42.454;27.400;2023-01-16T03:00:31;100801.44;;;6.20;100.00
38303;BME280;24103;42.454;27.400;2023-01-16T03:02:58;100810.44;;;6.13;100.00
38303;BME280;24103;42.454;27.400;2023-01-16T03:05:26;100804.75;;;6.00;100.00
38303;BME280;24103;42.454;27.400;2023-01-16T03:16:04;100794.91;;;6.06;100.00
38303;BME280;24103;42.454;27.400;2023-01-16T03:19:25;100797.47;;;6.08;100.00
38303;BME280;24103;42.454;27.400;2023-01-16T03:24:06;100793.84;;;6.12;100.00
38303;BME280;24103;42.454;27.400;2023-01-16T03:39:38;100782.22;;;6.19;100.00
38303;BME280;24103;42.454;27.400;2023-01-16T03:42:10;100783.75;;;6.25;100.00
38303;BME280;24103;42.454;27.400;2023-01-16T03:44:44;100778.38;;;6.28;100.00
38303;BME280;24103;42.454;27.400;2023-01-16T03:47:18;100784.16;;;6.38;100.00
38303;BME280;24103;42.454;27.400;2023-01-16T03:49:48;100791.47;;;6.30;100.00
38303;BME280;24103;42.454;27.400;2023-01-16T03:52:18;100781.31;;;6.20;100.00
38303;BME280;24103;42.454;27.400;2023-01-16T03:57:39;100782.38;;;6.38;100.00
38303;BME280;24103;42.454;27.400;2023-01-16T04:00:09;100780.81;;;6.34;100.00
38303;BME280;24103;42.454;27.400;2023-01-16T04:03:06;100791.97;;;6.39;100.00
38303;BME280;24103;42.454;27.400;2023-01-16T04:05:46;100792.09;;;6.36;100.00
38303;BME280;24103;42.454;27.400;2023-01-16T04:08:27;100786.16;;;6.31;100.00
38303;BME280;24103;42.454;27.400;2023-01-16T04:10:57;100787.94;;;6.31;100.00
38303;BME280;24103;42.454;27.400;2023-01-16T04:13:30;100783.38;;;6.36;100.00
38303;BME280;24103;42.454;27.400;2023-01-16T04:15:59;100786.72;;;6.39;100.00
38303;BME280;24103;42.454;27.400;2023-01-16T04:18:31;100782.69;;;6.31;100.00
38303;BME280;24103;42.454;27.400;2023-01-16T04:20:57;100769.03;;;6.21;100.00
38303;BME280;24103;42.454;27.400;2023-01-16T04:23:22;100780.22;;;6.26;100.00
38303;BME280;24103;42.454;27.400;2023-01-16T04:25:48;100772.28;;;6.27;100.00
38303;BME280;24103;42.454;27.400;2023-01-16T04:28:14;100765.44;;;6.23;100.00
38303;BME280;24103;42.454;27.400;2023-01-16T04:30:39;100770.50;;;6.28;100.00
38303;BME280;24103;42.454;27.400;2023-01-16T04:33:05;100776.56;;;6.30;100.00
38303;BME280;24103;42.454;27.400;2023-01-16T04:35:31;100781.53;;;6.38;100.00
38303;BME280;24103;42.454;27.400;2023-01-16T04:37:57;100779.03;;;6.35;100.00
38303;BME280;24103;42.454;27.400;2023-01-16T04:40:23;100772.94;;;6.34;100.00
38303;BME280;24103;42.454;27.400;2023-01-16T04:42:48;100761.75;;;6.29;100.00
38303;BME280;24103;42.454;27.400;2023-01-16T04:45:14;100762.00;;;6.21;100.00
38303;BME280;24103;42.454;27.400;2023-01-16T04:47:40;100761.22;;;6.19;100.00
38303;BME280;24103;42.454;27.400;2023-01-16T04:50:06;100760.88;;;6.28;100.00
38303;BME280;24103;42.454;27.400;2023-01-16T04:52:32;100751.97;;;6.33;100.00
38303;BME280;24103;42.454;27.400;2023-01-16T04:54:58;100758.03;;;6.35;100.00
38303;BME280;24103;42.454;27.400;2023-01-16T04:57:23;100759.69;;;6.37;100.00
38303;BME280;24103;42.454;27.400;2023-01-16T04:59:49;100755.41;;;6.35;100.00
38303;BME280;24103;42.454;27.400;2023-01-16T05:02:14;100757.13;;;6.36;100.00
38303;BME280;24103;42.454;27.400;2023-01-16T05:04:40;100751.09;;;6.34;100.00
38303;BME280;24103;42.454;27.400;2023-01-16T05:07:05;100742.38;;;6.32;100.00
38303;BME280;24103;42.454;27.400;2023-01-16T05:09:31;100743.88;;;6.39;100.00
38303;BME280;24103;42.454;27.400;2023-01-16T05:11:57;100731.50;;;6.42;100.00
38303;BME280;24103;42.454;27.400;2023-01-16T05:14:22;100721.97;;;6.40;100.00
38303;BME280;24103;42.454;27.400;2023-01-16T05:16:48;100729.84;;;6.40;100.00
38303;BME280;24103;42.454;27.400;2023-01-16T05:19:13;100733.03;;;6.24;100.00
38303;BME280;24103;42.454;27.400;2023-01-16T05:21:39;100721.59;;;6.27;100.00
38303;BME280;24103;42.454;27.400;2023-01-16T05:24:05;100714.69;;;6.24;100.00
38303;BME280;24103;42.454;27.400;2023-01-16T05:26:31;100717.03;;;6.32;100.00
38303;BME280;24103;42.454;27.400;2023-01-16T05:28:57;100716.97;;;6.34;100.00
38303;BME280;24103;42.454;27.400;2023-01-16T05:31:24;100708.94;;;6.37;100.00
38303;BME280;24103;42.454;27.400;2023-01-16T05:33:49;100714.34;;;6.34;100.00
38303;BME280;24103;42.454;27.400;2023-01-16T05:36:15;100707.47;;;6.30;100.00
38303;BME280;24103;42.454;27.400;2023-01-16T05:38:41;100708.16;;;6.35;100.00
38303;BME280;24103;42.454;27.400;2023-01-16T05:41:07;100710.06;;;6.31;100.00
38303;BME280;24103;42.454;27.400;2023-01-16T05:43:32;100712.63;;;6.33;100.00
38303;BME280;24103;42.454;27.400;2023-01-16T05:45:58;100711.88;;;6.29;100.00
38303;BME280;24103;42.454;27.400;2023-01-16T05:48:24;100703.84;;;6.34;100.00
38303;BME280;24103;42.454;27.400;2023-01-16T05:50:50;100715.63;;;6.45;100.00
38303;BME280;24103;42.454;27.400;2023-01-16T05:53:16;100710.28;;;6.49;100.00
38303;BME280;24103;42.454;27.400;2023-01-16T05:55:44;100718.94;;;6.51;100.00
38303;BME280;24103;42.454;27.400;2023-01-16T05:58:10;100719.06;;;6.48;100.00
38303;BME280;24103;42.454;27.400;2023-01-16T06:00:37;100713.81;;;6.48;100.00
38303;BME280;24103;42.454;27.400;2023-01-16T06:03:03;100713.31;;;6.60;100.00
38303;BME280;24103;42.454;27.400;2023-01-16T06:05:28;100714.97;;;6.62;100.00
38303;BME280;24103;42.454;27.400;2023-01-16T06:07:55;100710.63;;;6.61;100.00
38303;BME280;24103;42.454;27.400;2023-01-16T06:10:22;100717.44;;;6.67;100.00
38303;BME280;24103;42.454;27.400;2023-01-16T06:12:47;100718.84;;;6.76;100.00
38303;BME280;24103;42.454;27.400;2023-01-16T06:15:13;100716.44;;;6.70;100.00
38303;BME280;24103;42.454;27.400;2023-01-16T06:17:39;100723.25;;;6.75;100.00
38303;BME280;24103;42.454;27.400;2023-01-16T06:20:04;100705.03;;;6.71;100.00
38303;BME280;24103;42.454;27.400;2023-01-16T06:22:30;100717.38;;;6.69;100.00
38303;BME280;24103;42.454;27.400;2023-01-16T06:24:55;100720.91;;;6.68;100.00
38303;BME280;24103;42.454;27.400;2023-01-16T06:27:21;100713.75;;;6.71;100.00
38303;BME280;24103;42.454;27.400;2023-01-16T06:29:46;100717.88;;;6.78;100.00
38303;BME280;24103;42.454;27.400;2023-01-16T06:32:12;100723.06;;;6.80;100.00
38303;BME280;24103;42.454;27.400;2023-01-16T06:34:37;100717.69;;;6.83;100.00
38303;BME280;24103;42.454;27.400;2023-01-16T06:37:03;100720.13;;;6.88;100.00
38303;BME280;24103;42.454;27.400;2023-01-16T06:39:29;100701.72;;;6.88;100.00
38303;BME280;24103;42.454;27.400;2023-01-16T06:41:54;100709.19;;;6.98;100.00
38303;BME280;24103;42.454;27.400;2023-01-16T06:44:20;100709.06;;;7.01;100.00
38303;BME280;24103;42.454;27.400;2023-01-16T06:46:45;100707.84;;;7.10;100.00
38303;BME280;24103;42.454;27.400;2023-01-16T06:49:11;100714.66;;;7.36;100.00
38303;BME280;24103;42.454;27.400;2023-01-16T06:51:36;100709.19;;;7.62;100.00
38303;BME280;24103;42.454;27.400;2023-01-16T06:54:02;100709.44;;;7.97;100.00
38303;BME280;24103;42.454;27.400;2023-01-16T06:56:29;100693.28;;;8.44;100.00
38303;BME280;24103;42.454;27.400;2023-01-16T06:58:55;100683.53;;;9.01;100.00
38303;BME280;24103;42.454;27.400;2023-01-16T07:01:20;100682.44;;;9.58;100.00
38303;BME280;24103;42.454;27.400;2023-01-16T07:03:46;100687.41;;;9.98;100.00
38303;BME280;24103;42.454;27.400;2023-01-16T07:06:12;100679.53;;;10.29;100.00
38303;BME280;24103;42.454;27.400;2023-01-16T07:08:40;100670.06;;;10.43;100.00
38303;BME280;24103;42.454;27.400;2023-01-16T07:11:05;100666.13;;;10.50;100.00
38303;BME280;24103;42.454;27.400;2023-01-16T07:13:31;100654.66;;;10.51;100.00
38303;BME280;24103;42.454;27.400;2023-01-16T07:15:56;100654.28;;;10.73;100.00
38303;BME280;24103;42.454;27.400;2023-01-16T07:18:41;100641.91;;;10.74;100.00
38303;BME280;24103;42.454;27.400;2023-01-16T07:21:27;100656.50;;;10.49;100.00
38303;BME280;24103;42.454;27.400;2023-01-16T07:24:16;100655.16;;;9.59;100.00
38303;BME280;24103;42.454;27.400;2023-01-16T07:26:46;100661.28;;;9.25;100.00
38303;BME280;24103;42.454;27.400;2023-01-16T07:29:13;100666.31;;;8.94;100.00
38303;BME280;24103;42.454;27.400;2023-01-16T07:31:39;100675.50;;;8.85;100.00
38303;BME280;24103;42.454;27.400;2023-01-16T07:34:05;100681.75;;;8.65;100.00
38303;BME280;24103;42.454;27.400;2023-01-16T07:36:30;100670.25;;;8.85;100.00
38303;BME280;24103;42.454;27.400;2023-01-16T07:38:56;100673.91;;;8.64;100.00
38303;BME280;24103;42.454;27.400;2023-01-16T07:41:21;100664.25;;;8.45;100.00
38303;BME280;24103;42.454;27.400;2023-01-16T07:43:47;100667.53;;;8.32;100.00
38303;BME280;24103;42.454;27.400;2023-01-16T07:46:13;100666.72;;;8.29;100.00
38303;BME280;24103;42.454;27.400;2023-01-16T07:48:38;100649.09;;;8.32;100.00
38303;BME280;24103;42.454;27.400;2023-01-16T07:51:04;100657.47;;;8.40;100.00
38303;BME280;24103;42.454;27.400;2023-01-16T07:53:30;100657.53;;;8.19;100.00
38303;BME280;24103;42.454;27.400;2023-01-16T07:56:01;100652.72;;;8.29;100.00
38303;BME280;24103;42.454;27.400;2023-01-16T07:58:27;100652.41;;;8.16;100.00
38303;BME280;24103;42.454;27.400;2023-01-16T08:00:54;100656.25;;;8.28;100.00
38303;BME280;24103;42.454;27.400;2023-01-16T08:03:21;100647.44;;;8.29;100.00
38303;BME280;24103;42.454;27.400;2023-01-16T08:05:47;100638.91;;;8.43;100.00
38303;BME280;24103;42.454;27.400;2023-01-16T08:08:16;100639.56;;;8.48;100.00
38303;BME280;24103;42.454;27.400;2023-01-16T08:10:43;100640.31;;;8.31;100.00
38303;BME280;24103;42.454;27.400;2023-01-16T08:13:09;100635.06;;;8.50;100.00
38303;BME280;24103;42.454;27.400;2023-01-16T08:15:34;100632.91;;;8.39;100.00
38303;BME280;24103;42.454;27.400;2023-01-16T08:18:00;100627.31;;;8.47;100.00
38303;BME280;24103;42.454;27.400;2023-01-16T08:20:26;100634.44;;;8.45;100.00
38303;BME280;24103;42.454;27.400;2023-01-16T08:22:52;100635.84;;;8.71;100.00
38303;BME280;24103;42.454;27.400;2023-01-16T08:25:21;100627.09;;;8.88;100.00
38303;BME280;24103;42.454;27.400;2023-01-16T08:27:48;100602.22;;;9.11;100.00
38303;BME280;24103;42.454;27.400;2023-01-16T08:30:14;100608.56;;;9.42;100.00
38303;BME280;24103;42.454;27.400;2023-01-16T08:32:41;100598.25;;;9.20;100.00
38303;BME280;24103;42.454;27.400;2023-01-16T08:35:08;100597.81;;;8.94;100.00
38303;BME280;24103;42.454;27.400;2023-01-16T08:37:33;100598.56;;;8.96;100.00
38303;BME280;24103;42.454;27.400;2023-01-16T08:39:59;100585.25;;;8.99;100.00
38303;BME280;24103;42.454;27.400;2023-01-16T08:42:25;100593.28;;;9.31;100.00
38303;BME280;24103;42.454;27.400;2023-01-16T08:45:11;100573.22;;;9.62;100.00
38303;BME280;24103;42.454;27.400;2023-01-16T08:47:55;100578.94;;;9.86;100.00
38303;BME280;24103;42.454;27.400;2023-01-16T08:50:42;100580.97;;;9.65;100.00
38303;BME280;24103;42.454;27.400;2023-01-16T08:53:26;100580.09;;;9.65;100.00
38303;BME280;24103;42.454;27.400;2023-01-16T08:55:52;100575.75;;;9.64;100.00
38303;BME280;24103;42.454;27.400;2023-01-16T08:58:19;100570.66;;;9.76;100.00
38303;BME280;24103;42.454;27.400;2023-01-16T09:00:48;100571.78;;;9.72;100.00
38303;BME280;24103;42.454;27.400;2023-01-16T09:03:15;100567.50;;;9.70;100.00
38303;BME280;24103;42.454;27.400;2023-01-16T09:05:42;100571.88;;;10.03;100.00
38303;BME280;24103;42.454;27.400;2023-01-16T09:08:08;100562.31;;;9.68;100.00
38303;BME280;24103;42.454;27.400;2023-01-16T09:10:34;100549.63;;;9.59;100.00
38303;BME280;24103;42.454;27.400;2023-01-16T09:12:59;100547.69;;;9.78;100.00
38303;BME280;24103;42.454;27.400;2023-01-16T09:15:43;100543.50;;;9.74;100.00
38303;BME280;24103;42.454;27.400;2023-01-16T09:18:09;100537.63;;;9.69;100.00
38303;BME280;24103;42.454;27.400;2023-01-16T09:20:34;100537.34;;;9.58;100.00
38303;BME280;24103;42.454;27.400;2023-01-16T09:23:02;100530.47;;;9.55;100.00
38303;BME280;24103;42.454;27.400;2023-01-16T09:25:29;100521.84;;;9.52;100.00
38303;BME280;24103;42.454;27.400;2023-01-16T09:27:54;100507.53;;;9.73;100.00
38303;BME280;24103;42.454;27.400;2023-01-16T09:30:20;100509.47;;;10.02;100.00
38303;BME280;24103;42.454;27.400;2023-01-16T09:32:46;100509.53;;;10.48;100.00
38303;BME280;24103;42.454;27.400;2023-01-16T09:35:13;100495.81;;;10.72;100.00
38303;BME280;24103;42.454;27.400;2023-01-16T09:37:38;100501.00;;;10.73;100.00
38303;BME280;24103;42.454;27.400;2023-01-16T09:40:10;100499.75;;;10.79;100.00
38303;BME280;24103;42.454;27.400;2023-01-16T09:45:43;100486.59;;;10.93;100.00
38303;BME280;24103;42.454;27.400;2023-01-16T09:48:23;100488.03;;;10.99;100.00
38303;BME280;24103;42.454;27.400;2023-01-16T09:50:56;100494.31;;;10.82;100.00
38303;BME280;24103;42.454;27.400;2023-01-16T09:56:18;100459.84;;;11.27;100.00
38303;BME280;24103;42.454;27.400;2023-01-16T09:59:19;100455.72;;;11.37;100.00
38303;BME280;24103;42.454;27.400;2023-01-16T10:01:52;100454.66;;;11.54;100.00
38303;BME280;24103;42.454;27.400;2023-01-16T10:04:20;100444.03;;;11.68;100.00
38303;BME280;24103;42.454;27.400;2023-01-16T10:10:02;100428.03;;;12.11;100.00
38303;BME280;24103;42.454;27.400;2023-01-16T10:12:36;100415.31;;;11.89;100.00
38303;BME280;24103;42.454;27.400;2023-01-16T10:15:20;100407.84;;;11.96;97.50
38303;BME280;24103;42.454;27.400;2023-01-16T10:24:10;100386.28;;;11.88;93.92
38303;BME280;24103;42.454;27.400;2023-01-16T10:26:59;100380.91;;;11.62;92.92
38303;BME280;24103;42.454;27.400;2023-01-16T10:29:28;100381.94;;;11.32;97.27
38303;BME280;24103;42.454;27.400;2023-01-16T10:32:01;100379.88;;;11.23;98.73
38303;BME280;24103;42.454;27.400;2023-01-16T10:37:30;100373.28;;;11.01;97.38
38303;BME280;24103;42.454;27.400;2023-01-16T10:39:58;100366.50;;;10.97;96.09
38303;BME280;24103;42.454;27.400;2023-01-16T10:42:28;100362.63;;;11.03;97.09
38303;BME280;24103;42.454;27.400;2023-01-16T10:45:25;100365.72;;;10.95;99.57
38303;BME280;24103;42.454;27.400;2023-01-16T10:48:15;100351.09;;;10.90;98.57
38303;BME280;24103;42.454;27.400;2023-01-16T10:51:00;100353.56;;;11.07;93.92
38303;BME280;24103;42.454;27.400;2023-01-16T10:53:27;100347.13;;;11.11;94.59
38303;BME280;24103;42.454;27.400;2023-01-16T10:55:55;100330.78;;;11.19;91.13
38303;BME280;24103;42.454;27.400;2023-01-16T10:58:30;100334.34;;;11.18;91.49
38303;BME280;24103;42.454;27.400;2023-01-16T11:03:40;100337.44;;;11.24;90.11
38303;BME280;24103;42.454;27.400;2023-01-16T11:08:35;100324.13;;;11.26;89.03
38303;BME280;24103;42.454;27.400;2023-01-16T11:11:01;100319.84;;;11.38;84.61
38303;BME280;24103;42.454;27.400;2023-01-16T11:13:28;100314.94;;;11.32;82.97
38303;BME280;24103;42.454;27.400;2023-01-16T11:16:26;100312.06;;;11.22;79.01
38303;BME280;24103;42.454;27.400;2023-01-16T11:19:19;100313.00;;;11.21;80.62
38303;BME280;24103;42.454;27.400;2023-01-16T11:21:53;100309.06;;;11.68;81.25
38303;BME280;24103;42.454;27.400;2023-01-16T11:24:28;100296.28;;;11.48;76.28
38303;BME280;24103;42.454;27.400;2023-01-16T11:26:57;100287.06;;;11.40;77.13
38303;BME280;24103;42.454;27.400;2023-01-16T11:29:27;100290.19;;;11.33;78.17
38303;BME280;24103;42.454;27.400;2023-01-16T11:32:03;100288.13;;;11.23;80.16
38303;BME280;24103;42.454;27.400;2023-01-16T11:34:30;100290.91;;;11.22;82.92
38303;BME280;24103;42.454;27.400;2023-01-16T11:36:58;100279.66;;;11.18;81.94
38303;BME280;24103;42.454;27.400;2023-01-16T11:39:28;100289.41;;;11.18;81.97
38303;BME280;24103;42.454;27.400;2023-01-16T11:41:58;100276.56;;;11.12;82.81
38303;BME280;24103;42.454;27.400;2023-01-16T11:44:28;100279.25;;;11.24;81.42
38303;BME280;24103;42.454;27.400;2023-01-16T11:47:16;100279.16;;;11.26;82.56
38303;BME280;24103;42.454;27.400;2023-01-16T11:49:48;100278.63;;;11.21;83.95
38303;BME280;24103;42.454;27.400;2023-01-16T11:52:16;100274.22;;;11.61;79.41
38303;BME280;24103;42.454;27.400;2023-01-16T11:55:05;100272.38;;;11.49;79.81
38303;BME280;24103;42.454;27.400;2023-01-16T11:57:57;100270.50;;;11.64;77.59
38303;BME280;24103;42.454;27.400;2023-01-16T12:00:41;100269.31;;;11.55;76.13
38303;BME280;24103;42.454;27.400;2023-01-16T12:03:57;100268.84;;;11.89;77.50
38303;BME280;24103;42.454;27.400;2023-01-16T12:17:00;100231.41;;;11.95;69.18
38303;BME280;24103;42.454;27.400;2023-01-16T12:33:42;100224.28;;;11.70;70.79
38303;BME280;24103;42.454;27.400;2023-01-16T12:39:16;100219.22;;;11.39;72.79
38303;BME280;24103;42.454;27.400;2023-01-16T12:53:42;100228.31;;;11.35;77.75
38303;BME280;24103;42.454;27.400;2023-01-16T12:58:53;100221.56;;;11.04;77.09
38303;BME280;24103;42.454;27.400;2023-01-16T13:01:26;100229.69;;;11.01;77.04
38303;BME280;24103;42.454;27.400;2023-01-16T13:04:06;100225.63;;;10.95;80.07
38303;BME280;24103;42.454;27.400;2023-01-16T13:06:43;100230.25;;;10.92;79.66
38303;BME280;24103;42.454;27.400;2023-01-16T13:09:30;100229.53;;;10.75;80.43
38303;BME280;24103;42.454;27.400;2023-01-16T13:12:08;100220.59;;;10.63;78.78
38303;BME280;24103;42.454;27.400;2023-01-16T13:14:57;100224.09;;;10.64;79.33
38303;BME280;24103;42.454;27.400;2023-01-16T13:17:31;100230.34;;;10.63;80.97
38303;BME280;24103;42.454;27.400;2023-01-16T13:20:02;100224.13;;;10.49;82.06
38303;BME280;24103;42.454;27.400;2023-01-16T13:22:36;100227.06;;;10.45;82.01
38303;BME280;24103;42.454;27.400;2023-01-16T13:25:24;100234.78;;;10.48;81.88
38303;BME280;24103;42.454;27.400;2023-01-16T13:28:01;100238.47;;;10.45;82.58
38303;BME280;24103;42.454;27.400;2023-01-16T13:30:27;100232.44;;;10.43;83.35
38303;BME280;24103;42.454;27.400;2023-01-16T13:33:03;100227.72;;;10.48;82.59
38303;BME280;24103;42.454;27.400;2023-01-16T13:47:10;100221.50;;;10.49;87.29
38303;BME280;24103;42.454;27.400;2023-01-16T13:49:37;100216.59;;;10.43;87.92
38303;BME280;24103;42.454;27.400;2023-01-16T13:52:04;100217.34;;;10.45;87.86
38303;BME280;24103;42.454;27.400;2023-01-16T13:54:43;100207.50;;;10.47;86.69
38303;BME280;24103;42.454;27.400;2023-01-16T13:57:18;100216.59;;;10.43;87.90
38303;BME280;24103;42.454;27.400;2023-01-16T14:02:24;100208.81;;;10.26;89.73
38303;BME280;24103;42.454;27.400;2023-01-16T14:05:23;100214.09;;;10.26;90.91
38303;BME280;24103;42.454;27.400;2023-01-16T14:10:46;100213.75;;;10.03;94.47
38303;BME280;24103;42.454;27.400;2023-01-16T14:15:59;100226.16;;;9.87;98.29
38303;BME280;24103;42.454;27.400;2023-01-16T14:21:21;100216.34;;;9.74;98.82
38303;BME280;24103;42.454;27.400;2023-01-16T14:23:59;100213.97;;;9.70;98.56
38303;BME280;24103;42.454;27.400;2023-01-16T14:29:13;100216.22;;;9.62;99.53
38303;BME280;24103;42.454;27.400;2023-01-16T14:31:45;100204.91;;;9.59;99.32
38303;BME280;24103;42.454;27.400;2023-01-16T14:34:20;100214.97;;;9.53;100.00
38303;BME280;24103;42.454;27.400;2023-01-16T14:36:51;100213.38;;;9.50;100.00
38303;BME280;24103;42.454;27.400;2023-01-16T14:39:39;100203.38;;;9.41;100.00
38303;BME280;24103;42.454;27.400;2023-01-16T14:42:17;100200.25;;;9.34;100.00
38303;BME280;24103;42.454;27.400;2023-01-16T14:51:14;100208.34;;;9.15;100.00
38303;BME280;24103;42.454;27.400;2023-01-16T14:57:11;100206.75;;;8.97;100.00
38303;BME280;24103;42.454;27.400;2023-01-16T14:59:48;100188.06;;;8.85;100.00
38303;BME280;24103;42.454;27.400;2023-01-16T15:02:21;100192.09;;;8.77;100.00
38303;BME280;24103;42.454;27.400;2023-01-16T15:10:19;100188.78;;;8.57;100.00
38303;BME280;24103;42.454;27.400;2023-01-16T15:12:45;100195.25;;;8.52;100.00
38303;BME280;24103;42.454;27.400;2023-01-16T15:15:27;100198.28;;;8.44;100.00
38303;BME280;24103;42.454;27.400;2023-01-16T15:17:58;100190.91;;;8.33;100.00
38303;BME280;24103;42.454;27.400;2023-01-16T15:20:45;100194.06;;;8.24;100.00
38303;BME280;24103;42.454;27.400;2023-01-16T15:23:31;100204.00;;;8.19;100.00
38303;BME280;24103;42.454;27.400;2023-01-16T15:28:35;100201.56;;;7.98;100.00
38303;BME280;24103;42.454;27.400;2023-01-16T15:31:23;100201.03;;;7.91;100.00
38303;BME280;24103;42.454;27.400;2023-01-16T15:34:06;100184.13;;;7.80;100.00
38303;BME280;24103;42.454;27.400;2023-01-16T15:36:42;100205.22;;;7.78;100.00
38303;BME280;24103;42.454;27.400;2023-01-16T15:41:37;100224.66;;;7.75;100.00